Orient, Iowa
Current Conditions -  °F | °C
As of 1:35 PM on Tuesday 21 Oct 2014 (Local Time) from KCSQ Reporting Station
Haze Haze  
Wind Chill: 68°   Ceiling: 200
Heat Index: 68°   Visibility: 0.25mi
Dew Point: 43°   Wind: 3mph
Humidity: 40%   Direction: NA
Pressure: 30.11"   Gusts: 12mph
Location:  41.2°N, 94.41°W
Report Text: KCSQ 211835Z AUTO VRB03G10KT 1/4SM HZ VV002 20/06 A3011 RMK AO2
Loading
Personal Weather Stations






























Interactive Weather Map
Tropical Storm Tracking
New forecast layout! Learn more

10-Day Weather Forecast

Advertisements
Track Severe Weather on mobile